Time;durP1;ratioP1;P1;durP2;ratioP2;P2;SDS_P1;SDS_P2;PMS_P1;PMS_P2;Temp;Humidity;BMP_temperature;BMP_pressure;BME280_temperature;BME280_humidity;BME280_pressure;Samples;Min_cycle;Max_cycle;Signal;HPM_P1;HPM_P2
2022/09/04 01:27:29;;;;;;;;;;;;;;;;;;2406899;53;1676;-54
2022/09/04 01:30:06;;;;;;;;;;;;;;;;;;2210434;59;2307;-54
2022/09/04 01:32:50;;;;;;;;;;;;;;;;;;2211362;59;1692;-55
2022/09/04 01:35:29;;;;;;;;;;;;;;;;;;2211353;59;1226;-53
2022/09/04 01:38:04;;;;;;;;;;;;;;;;;;2210848;59;1204;-54
2022/09/04 01:40:41;;;;;;;;;;;;;;;;;;2209520;67;1108;-54
2022/09/04 01:56:41;;;;;;;;;;;;;;;;;;2374118;53;2312;-67
2022/09/04 01:59:21;;;;;;;;;;;;;;;;;;2210041;67;1142;-65
2022/09/04 02:01:58;;;;;;;;;;;;;;;;;;2208333;59;1168;-64
2022/09/04 02:04:36;;;;;;;;;;;;;;;;;;2207302;59;1155;-65
2022/09/04 02:07:16;;;;;;;;;;;;;;;;;;2206369;67;1980;-65
2022/09/04 02:09:53;;;;;;;;;;;;;;;;;;2206137;59;1288;-66
2022/09/04 02:12:36;;;;;;;;;;;;;;;;;;2207469;59;1243;-67
2022/09/04 02:15:14;;;;;;;;;;;;;;;;;;2207004;67;1143;-65
2022/09/04 02:17:50;;;;;;;;;;;;;;;;;;2205886;67;1153;-65
2022/09/04 02:20:25;;;;;;;;;;;;;;;;;;2207803;67;1239;-65
2022/09/04 02:23:04;;;;;;;;;;;;;;;;;;2206036;67;1290;-64
2022/09/04 02:25:40;;;;;;;;;;;;;;;;;;2206391;67;1097;-66
2022/09/04 02:28:21;;;;;;;;;;;;;;;;;;2207004;59;1987;-66
2022/09/04 02:30:59;;;;;;;;;;;;;;;;;;2206093;67;1093;-65
2022/09/04 02:33:38;;;;;;;;;;;;;;;;;;2206710;67;1149;-64
2022/09/04 02:36:15;;;;;;;;;;;;;;;;;;2206689;59;1294;-64
2022/09/04 02:38:55;;;;;;;;;;;;;;;;;;2205921;67;1131;-66
2022/09/04 02:41:36;;;;;;;;;;;;;;;;;;2207104;67;1857;-65
2022/09/04 02:44:21;;;;;;;;;;;;;;;;;;2206528;67;1087;-67
2022/09/04 02:47:03;;;;;;;;;;;;;;;;;;2206537;67;1948;-66
2022/09/04 02:49:41;;;;;;;;;;;;;;;;;;2207086;67;1108;-66
2022/09/04 02:52:20;;;;;;;;;;;;;;;;;;2207118;67;1180;-66
2022/09/04 02:55:02;;;;;;;;;;;;;;;;;;2206814;67;1142;-64
2022/09/04 02:57:41;;;;;;;;;;;;;;;;;;2206775;59;1172;-66
2022/09/04 03:00:18;;;;;;;;;;;;;;;;;;2206886;67;1117;-65
2022/09/04 03:02:54;;;;;;;;;;;;;;;;;;2206361;59;3017;-67
2022/09/04 03:05:30;;;;;;;;;;;;;;;;;;2207087;59;1314;-65
2022/09/04 03:08:06;;;;;;;;;;;;;;;;;;2206689;59;1934;-65
2022/09/04 03:10:43;;;;;;;;;;;;;;;;;;2206684;59;1216;-66
2022/09/04 03:13:22;;;;;;;;;;;;;;;;;;2206304;59;1292;-65
2022/09/04 03:16:00;;;;;;;;;;;;;;;;;;2205628;67;1128;-66
2022/09/04 03:18:36;;;;;;;;;;;;;;;;;;2207522;67;1177;-66
2022/09/04 03:21:13;;;;;;;;;;;;;;;;;;2206022;59;1265;-66
2022/09/04 03:23:50;;;;;;;;;;;;;;;;;;2206224;67;1840;-65
2022/09/04 03:26:25;;;;;;;;;;;;;;;;;;2206199;59;1603;-65
2022/09/04 03:29:04;;;;;;;;;;;;;;;;;;2205722;59;1993;-67
2022/09/04 03:31:46;;;;;;;;;;;;;;;;;;2206163;67;1284;-66
2022/09/04 03:34:28;;;;;;;;;;;;;;;;;;2205986;67;1206;-66
2022/09/04 03:37:08;;;;;;;;;;;;;;;;;;2205509;59;1316;-66
2022/09/04 03:39:48;;;;;;;;;;;;;;;;;;2205931;67;1041;-66
2022/09/04 03:42:24;;;;;;;;;;;;;;;;;;2206075;67;1246;-66
2022/09/04 03:45:04;;;;;;;;;;;;;;;;;;2206320;67;1130;-66
2022/09/04 03:47:45;;;;;;;;;;;;;;;;;;2206254;67;1933;-65
2022/09/04 03:50:23;;;;;;;;;;;;;;;;;;2205751;67;1199;-66
2022/09/04 03:52:58;;;;;;;;;;;;;;;;;;2206143;67;1310;-66
2022/09/04 03:55:46;;;;;;;;;;;;;;;;;;2206608;67;1105;-63
2022/09/04 03:58:25;;;;;;;;;;;;;;;;;;2200617;59;1230;-62
2022/09/04 04:01:06;;;;;;;;;;;;;;;;;;2206532;67;1111;-65
2022/09/04 04:03:53;;;;;;;;;;;;;;;;;;2206297;59;1257;-66
2022/09/04 04:06:33;;;;;;;;;;;;;;;;;;2205569;67;1123;-65
2022/09/04 04:09:23;;;;;;;;;;;;;;;;;;2206194;67;1981;-65
2022/09/04 04:12:05;;;;;;;;;;;;;;;;;;2206109;59;1755;-66
2022/09/04 04:14:50;;;;;;;;;;;;;;;;;;2206726;67;1035;-65
2022/09/04 04:17:38;;;;;;;;;;;;;;;;;;2206298;67;1247;-66
2022/09/04 04:20:20;;;;;;;;;;;;;;;;;;2204328;67;1374;-65
2022/09/04 04:23:03;;;;;;;;;;;;;;;;;;2206024;67;1188;-65
2022/09/04 04:26:00;;;;;;;;;;;;;;;;;;2206569;67;1016;-64
2022/09/04 04:28:58;;;;;;;;;;;;;;;;;;2202934;59;2117;-65
2022/09/04 04:31:39;;;;;;;;;;;;;;;;;;2207058;67;1239;-66
2022/09/04 04:34:17;;;;;;;;;;;;;;;;;;2207808;67;1153;-66
2022/09/04 04:36:57;;;;;;;;;;;;;;;;;;2206609;59;1268;-66
2022/09/04 04:39:38;;;;;;;;;;;;;;;;;;2207063;67;1288;-66
2022/09/04 04:42:19;;;;;;;;;;;;;;;;;;2207093;67;1250;-64
2022/09/04 04:48:20;;;;;;;;;;;;;;;;;;2207241;67;1985;-65
2022/09/04 04:51:01;;;;;;;;;;;;;;;;;;2206850;67;1268;-64
2022/09/04 04:53:40;;;;;;;;;;;;;;;;;;2207471;67;1275;-64
2022/09/04 04:56:19;;;;;;;;;;;;;;;;;;2207493;59;1190;-65
2022/09/04 04:58:57;;;;;;;;;;;;;;;;;;2207011;67;1159;-65
2022/09/04 05:01:37;;;;;;;;;;;;;;;;;;2207620;67;1196;-63
2022/09/04 05:04:16;;;;;;;;;;;;;;;;;;2207713;67;1230;-66
2022/09/04 05:06:53;;;;;;;;;;;;;;;;;;2206785;67;1206;-64
2022/09/04 05:09:34;;;;;;;;;;;;;;;;;;2206808;59;1936;-67
2022/09/04 05:12:10;;;;;;;;;;;;;;;;;;2207083;59;1241;-65
2022/09/04 05:14:50;;;;;;;;;;;;;;;;;;2206566;67;1101;-64
2022/09/04 05:17:26;;;;;;;;;;;;;;;;;;2207127;67;1299;-64
2022/09/04 05:20:07;;;;;;;;;;;;;;;;;;2207459;67;1101;-66
2022/09/04 05:22:44;;;;;;;;;;;;;;;;;;2206953;67;1167;-65
2022/09/04 05:25:25;;;;;;;;;;;;;;;;;;2206570;67;1148;-65
2022/09/04 05:28:03;;;;;;;;;;;;;;;;;;2207101;59;1943;-64
2022/09/04 05:30:42;;;;;;;;;;;;;;;;;;2206613;67;1160;-65
2022/09/04 05:33:19;;;;;;;;;;;;;;;;;;2207011;67;1235;-65
2022/09/04 05:35:57;;;;;;;;;;;;;;;;;;2206881;59;1280;-63
2022/09/04 05:38:35;;;;;;;;;;;;;;;;;;2205774;67;1080;-63
2022/09/04 05:41:19;;;;;;;;;;;;;;;;;;2206416;67;1109;-65
2022/09/04 05:44:01;;;;;;;;;;;;;;;;;;2206652;67;1098;-64
2022/09/04 05:46:44;;;;;;;;;;;;;;;;;;2206609;67;1100;-67
2022/09/04 05:49:23;;;;;;;;;;;;;;;;;;2206540;67;1935;-64
2022/09/04 05:52:15;;;;;;;;;;;;;;;;;;2206985;67;1245;-66
2022/09/04 05:55:06;;;;;;;;;;;;;;;;;;2206524;67;1156;-66
2022/09/04 05:57:48;;;;;;;;;;;;;;;;;;2207076;59;1692;-65
2022/09/04 06:00:22;;;;;;;;;;;;;;;;;;2206530;67;1236;-66
2022/09/04 06:03:06;;;;;;;;;;;;;;;;;;2207495;59;1333;-66
2022/09/04 06:05:45;;;;;;;;;;;;;;;;;;2207579;67;1161;-66
2022/09/04 06:08:27;;;;;;;;;;;;;;;;;;2205910;60;1999;-67
2022/09/04 06:11:05;;;;;;;;;;;;;;;;;;2207001;59;1215;-66
2022/09/04 06:13:49;;;;;;;;;;;;;;;;;;2206686;67;2138;-65
2022/09/04 06:16:34;;;;;;;;;;;;;;;;;;2206783;67;1279;-64
2022/09/04 06:19:25;;;;;;;;;;;;;;;;;;2206944;67;1276;-67
2022/09/04 06:22:06;;;;;;;;;;;;;;;;;;2205000;67;1905;-67
2022/09/04 06:24:46;;;;;;;;;;;;;;;;;;2207027;67;1116;-66
2022/09/04 06:27:27;;;;;;;;;;;;;;;;;;2206772;59;1598;-67
2022/09/04 06:30:08;;;;;;;;;;;;;;;;;;2205680;67;1988;-67
2022/09/04 06:32:56;;;;;;;;;;;;;;;;;;2206816;67;1214;-65
2022/09/04 06:35:36;;;;;;;;;;;;;;;;;;2206997;59;1326;-66
2022/09/04 06:38:15;;;;;;;;;;;;;;;;;;2206519;67;1175;-66
2022/09/04 06:40:52;;;;;;;;;;;;;;;;;;2205873;67;1130;-66
2022/09/04 06:43:32;;;;;;;;;;;;;;;;;;2206910;67;1244;-66
2022/09/04 06:46:15;;;;;;;;;;;;;;;;;;2206449;67;1222;-65
2022/09/04 06:48:54;;;;;;;;;;;;;;;;;;2205739;67;1928;-64
2022/09/04 06:51:41;;;;;;;;;;;;;;;;;;2207006;67;1294;-66
2022/09/04 06:54:18;;;;;;;;;;;;;;;;;;2206753;67;1121;-63
2022/09/04 06:57:00;;;;;;;;;;;;;;;;;;2206678;67;1410;-63
2022/09/04 06:59:57;;;;;;;;;;;;;;;;;;2205889;67;1216;-60
2022/09/04 07:02:48;;;;;;;;;;;;;;;;;;2203841;67;2051;-63
2022/09/04 07:05:28;;;;;;;;;;;;;;;;;;2206610;67;1205;-65
2022/09/04 07:08:07;;;;;;;;;;;;;;;;;;2206147;67;1108;-63
2022/09/04 07:10:43;;;;;;;;;;;;;;;;;;2206300;59;1943;-64
2022/09/04 07:13:38;;;;;;;;;;;;;;;;;;2205676;59;1418;-67
2022/09/04 07:16:21;;;;;;;;;;;;;;;;;;2206490;67;1215;-65
2022/09/04 07:19:12;;;;;;;;;;;;;;;;;;2205987;67;1099;-64
2022/09/04 07:21:53;;;;;;;;;;;;;;;;;;2205232;67;1489;-65
2022/09/04 07:24:40;;;;;;;;;;;;;;;;;;2206846;67;1207;-67
2022/09/04 07:27:17;;;;;;;;;;;;;;;;;;2206344;59;1718;-66
2022/09/04 07:29:53;;;;;;;;;;;;;;;;;;2205739;67;1972;-66
2022/09/04 07:32:32;;;;;;;;;;;;;;;;;;2205920;67;1228;-65
2022/09/04 07:35:09;;;;;;;;;;;;;;;;;;2206240;67;1228;-64
2022/09/04 07:37:49;;;;;;;;;;;;;;;;;;2205337;59;1280;-67
2022/09/04 07:40:24;;;;;;;;;;;;;;;;;;2206448;67;1287;-65
2022/09/04 07:43:01;;;;;;;;;;;;;;;;;;2205949;67;1328;-66
2022/09/04 07:45:36;;;;;;;;;;;;;;;;;;2206341;67;1194;-66
2022/09/04 07:48:15;;;;;;;;;;;;;;;;;;2206388;67;1101;-66
2022/09/04 07:51:02;;;;;;;;;;;;;;;;;;2205291;67;1947;-64
2022/09/04 07:53:46;;;;;;;;;;;;;;;;;;2208380;53;3872;-76
2022/09/04 07:56:26;;;;;;;;;;;;;;;;;;2204574;59;1216;-77
2022/09/04 07:59:14;;;;;;;;;;;;;;;;;;2204056;67;1188;-76
2022/09/04 08:01:59;;;;;;;;;;;;;;;;;;2204178;67;1124;-77
2022/09/04 08:04:49;;;;;;;;;;;;;;;;;;2205402;59;1263;-78
2022/09/04 09:03:42;;;;;;;;;;;;;;;;;;2330894;53;2242;-66
2022/09/04 09:06:34;;;;;;;;;;;;;;;;;;2210925;59;1197;-66
2022/09/04 09:09:21;;;;;;;;;;;;;;;;;;2210533;59;1997;-66
2022/09/04 09:12:13;;;;;;;;;;;;;;;;;;2210950;59;1389;-66
2022/09/04 09:15:12;;;;;;;;;;;;;;;;;;2210446;67;1136;-65
2022/09/04 09:17:56;;;;;;;;;;;;;;;;;;2197138;67;1255;-66
2022/09/04 09:20:38;;;;;;;;;;;;;;;;;;2210485;59;1235;-66
2022/09/04 09:23:21;;;;;;;;;;;;;;;;;;2210156;67;1202;-65
2022/09/04 09:26:05;;;;;;;;;;;;;;;;;;2210500;67;1175;-65
2022/09/04 09:29:11;;;;;;;;;;;;;;;;;;2210725;59;1867;-66
2022/09/04 09:32:03;;;;;;;;;;;;;;;;;;2210625;67;1196;-65
2022/09/04 09:34:56;;;;;;;;;;;;;;;;;;2210440;67;1270;-65
2022/09/04 09:37:50;;;;;;;;;;;;;;;;;;2210833;59;1305;-64
2022/09/04 09:40:43;;;;;;;;;;;;;;;;;;2210658;67;1243;-65
2022/09/04 09:43:34;;;;;;;;;;;;;;;;;;2210826;67;1302;-64
2022/09/04 09:46:30;;;;;;;;;;;;;;;;;;2210451;67;1897;-65
2022/09/04 09:49:21;;;;;;;;;;;;;;;;;;2206482;67;2576;-62
2022/09/04 09:52:15;;;;;;;;;;;;;;;;;;2203107;67;1153;-65
2022/09/04 09:55:04;;;;;;;;;;;;;;;;;;2209319;67;2262;-65
2022/09/04 09:57:56;;;;;;;;;;;;;;;;;;2210681;67;1174;-62
2022/09/04 10:00:35;;;;;;;;;;;;;;;;;;2210645;67;1150;-64
2022/09/04 10:03:42;;;;;;;;;;;;;;;;;;2210127;59;1248;-63
2022/09/04 10:06:30;;;;;;;;;;;;;;;;;;2211156;67;1184;-65
2022/09/04 10:09:22;;;;;;;;;;;;;;;;;;2210090;59;1239;-64
2022/09/04 10:12:22;;;;;;;;;;;;;;;;;;2210374;59;1287;-66
2022/09/04 10:15:10;;;;;;;;;;;;;;;;;;2210707;67;1094;-65
2022/09/04 10:18:04;;;;;;;;;;;;;;;;;;2202947;67;1219;-66
2022/09/04 10:20:54;;;;;;;;;;;;;;;;;;2210368;67;2423;-64
2022/09/04 10:23:45;;;;;;;;;;;;;;;;;;2210848;67;1263;-65
2022/09/04 10:26:38;;;;;;;;;;;;;;;;;;2203645;59;1682;-65
2022/09/04 10:29:30;;;;;;;;;;;;;;;;;;2210585;59;1584;-66
2022/09/04 10:32:13;;;;;;;;;;;;;;;;;;2210055;67;1214;-65
2022/09/04 10:35:02;;;;;;;;;;;;;;;;;;2210095;67;1337;-65
2022/09/04 10:37:45;;;;;;;;;;;;;;;;;;2207448;59;2302;-65
2022/09/04 10:40:34;;;;;;;;;;;;;;;;;;2210300;59;1230;-66
2022/09/04 10:43:17;;;;;;;;;;;;;;;;;;2210400;67;1325;-64
2022/09/04 10:45:57;;;;;;;;;;;;;;;;;;2210025;67;1326;-66
2022/09/04 10:48:45;;;;;;;;;;;;;;;;;;2210248;67;1154;-65
2022/09/04 10:51:37;;;;;;;;;;;;;;;;;;2207173;67;2090;-64
2022/09/04 10:54:28;;;;;;;;;;;;;;;;;;2210293;67;1225;-65
2022/09/04 10:57:17;;;;;;;;;;;;;;;;;;2201947;67;1913;-66
2022/09/04 10:59:58;;;;;;;;;;;;;;;;;;2210227;67;1132;-66
2022/09/04 11:02:49;;;;;;;;;;;;;;;;;;2209370;67;1247;-66
2022/09/04 11:05:35;;;;;;;;;;;;;;;;;;2210401;67;1211;-65
2022/09/04 11:08:26;;;;;;;;;;;;;;;;;;2210050;67;1038;-65
2022/09/04 11:11:05;;;;;;;;;;;;;;;;;;2210244;59;1947;-65
2022/09/04 11:13:55;;;;;;;;;;;;;;;;;;2210126;67;1261;-66
2022/09/04 11:16:38;;;;;;;;;;;;;;;;;;2210129;67;2303;-64
2022/09/04 11:19:27;;;;;;;;;;;;;;;;;;2210831;67;1111;-66
2022/09/04 11:22:18;;;;;;;;;;;;;;;;;;2210538;67;1322;-65
2022/09/04 11:25:17;;;;;;;;;;;;;;;;;;2209988;67;1963;-66
2022/09/04 11:28:08;;;;;;;;;;;;;;;;;;2209629;59;1594;-66
2022/09/04 11:30:57;;;;;;;;;;;;;;;;;;2210022;67;1935;-65
2022/09/04 11:33:53;;;;;;;;;;;;;;;;;;2210121;67;1211;-64
2022/09/04 11:36:54;;;;;;;;;;;;;;;;;;2209761;59;1251;-65
2022/09/04 11:39:50;;;;;;;;;;;;;;;;;;2210029;67;1207;-63
2022/09/04 11:42:31;;;;;;;;;;;;;;;;;;2210024;67;1226;-66
2022/09/04 11:45:16;;;;;;;;;;;;;;;;;;2210248;67;1210;-65
2022/09/04 11:48:01;;;;;;;;;;;;;;;;;;2210045;67;1283;-65
2022/09/04 11:50:46;;;;;;;;;;;;;;;;;;2210228;67;1979;-65
2022/09/04 11:53:34;;;;;;;;;;;;;;;;;;2210105;67;1216;-66
2022/09/04 11:56:17;;;;;;;;;;;;;;;;;;2209961;67;1132;-66
2022/09/04 11:58:57;;;;;;;;;;;;;;;;;;2209835;67;1184;-66
2022/09/04 12:01:41;;;;;;;;;;;;;;;;;;2209874;67;1052;-66
2022/09/04 12:04:36;;;;;;;;;;;;;;;;;;2210162;59;1277;-64
2022/09/04 12:07:26;;;;;;;;;;;;;;;;;;2209063;67;2028;-66
2022/09/04 12:10:13;;;;;;;;;;;;;;;;;;2209839;59;1930;-66
2022/09/04 12:12:56;;;;;;;;;;;;;;;;;;2210275;59;1323;-65
2022/09/04 12:15:53;;;;;;;;;;;;;;;;;;2210333;67;1102;-63
2022/09/04 12:18:35;;;;;;;;;;;;;;;;;;2209859;67;1188;-66
2022/09/04 12:21:33;;;;;;;;;;;;;;;;;;2210223;67;1216;-65
2022/09/04 12:24:28;;;;;;;;;;;;;;;;;;2206499;67;1446;-65
2022/09/04 12:27:10;;;;;;;;;;;;;;;;;;2210034;59;1494;-66
2022/09/04 12:29:55;;;;;;;;;;;;;;;;;;2209605;67;1097;-65
2022/09/04 12:32:38;;;;;;;;;;;;;;;;;;2209944;67;1230;-66
2022/09/04 12:35:43;;;;;;;;;;;;;;;;;;2210040;67;1189;-66
2022/09/04 12:38:34;;;;;;;;;;;;;;;;;;2209912;67;1166;-66
2022/09/04 12:41:15;;;;;;;;;;;;;;;;;;2208774;67;1732;-65
2022/09/04 12:43:55;;;;;;;;;;;;;;;;;;2209955;67;1162;-65
2022/09/04 12:46:39;;;;;;;;;;;;;;;;;;2210543;67;1246;-65
2022/09/04 12:49:27;;;;;;;;;;;;;;;;;;2210519;67;1118;-63
2022/09/04 12:52:07;;;;;;;;;;;;;;;;;;2210158;67;2515;-64
2022/09/04 12:54:50;;;;;;;;;;;;;;;;;;2210871;67;1221;-64
2022/09/04 12:57:32;;;;;;;;;;;;;;;;;;2210385;67;1178;-64
2022/09/04 13:00:09;;;;;;;;;;;;;;;;;;2210096;67;1097;-64
2022/09/04 13:02:49;;;;;;;;;;;;;;;;;;2207685;59;1659;-65
2022/09/04 13:05:37;;;;;;;;;;;;;;;;;;2210571;67;1246;-64
2022/09/04 13:08:18;;;;;;;;;;;;;;;;;;2210145;67;1605;-65
2022/09/04 13:10:58;;;;;;;;;;;;;;;;;;2210714;59;1935;-64
2022/09/04 13:13:40;;;;;;;;;;;;;;;;;;2210853;67;1207;-65
2022/09/04 13:16:19;;;;;;;;;;;;;;;;;;2210973;67;1128;-64
2022/09/04 13:19:00;;;;;;;;;;;;;;;;;;2210947;67;1170;-64
2022/09/04 13:21:43;;;;;;;;;;;;;;;;;;2210543;67;1195;-64
2022/09/04 13:24:24;;;;;;;;;;;;;;;;;;2211059;67;1209;-63
2022/09/04 13:27:06;;;;;;;;;;;;;;;;;;2210335;59;1500;-64
2022/09/04 13:29:46;;;;;;;;;;;;;;;;;;2210614;67;1051;-64
2022/09/04 13:32:29;;;;;;;;;;;;;;;;;;2210774;67;1930;-64
2022/09/04 13:35:10;;;;;;;;;;;;;;;;;;2210210;62;1220;-65
2022/09/04 13:37:52;;;;;;;;;;;;;;;;;;2210198;59;1326;-64
2022/09/04 13:40:34;;;;;;;;;;;;;;;;;;2210893;67;1150;-65
2022/09/04 13:43:25;;;;;;;;;;;;;;;;;;2210018;67;1175;-65
2022/09/04 13:46:05;;;;;;;;;;;;;;;;;;2208495;67;1957;-65
2022/09/04 13:48:42;;;;;;;;;;;;;;;;;;2210466;67;1080;-65
2022/09/04 13:51:18;;;;;;;;;;;;;;;;;;2210421;67;1936;-65
2022/09/04 13:53:57;;;;;;;;;;;;;;;;;;2210927;67;1239;-63
2022/09/04 13:56:33;;;;;;;;;;;;;;;;;;2210440;67;1045;-65
2022/09/04 13:59:08;;;;;;;;;;;;;;;;;;2210371;67;1111;-64
2022/09/04 14:01:48;;;;;;;;;;;;;;;;;;2210405;67;1099;-65
2022/09/04 14:04:25;;;;;;;;;;;;;;;;;;2210677;59;1186;-65
2022/09/04 14:07:01;;;;;;;;;;;;;;;;;;2210617;67;1199;-65
2022/09/04 14:09:38;;;;;;;;;;;;;;;;;;2210536;59;1194;-64
2022/09/04 14:12:29;;;;;;;;;;;;;;;;;;2210598;59;1936;-65
2022/09/04 14:15:20;;;;;;;;;;;;;;;;;;2210092;67;1978;-64
2022/09/04 14:18:03;;;;;;;;;;;;;;;;;;2210784;67;1133;-63
2022/09/04 14:20:40;;;;;;;;;;;;;;;;;;2209520;67;1024;-65
2022/09/04 14:23:20;;;;;;;;;;;;;;;;;;2209573;67;1132;-64
2022/09/04 14:25:57;;;;;;;;;;;;;;;;;;2210176;67;1111;-65
2022/09/04 14:28:39;;;;;;;;;;;;;;;;;;2209977;59;2181;-65
2022/09/04 14:31:17;;;;;;;;;;;;;;;;;;2209872;67;1935;-65
2022/09/04 14:33:58;;;;;;;;;;;;;;;;;;2210379;67;1132;-65
2022/09/04 14:36:37;;;;;;;;;;;;;;;;;;2210061;59;1389;-65
2022/09/04 14:39:19;;;;;;;;;;;;;;;;;;2209775;59;2937;-65
2022/09/04 14:42:01;;;;;;;;;;;;;;;;;;2210374;59;1348;-63
2022/09/04 14:44:41;;;;;;;;;;;;;;;;;;2210487;67;1241;-65
2022/09/04 14:47:24;;;;;;;;;;;;;;;;;;2210548;67;1324;-65
2022/09/04 14:50:01;;;;;;;;;;;;;;;;;;2210261;67;1230;-65
2022/09/04 14:52:40;;;;;;;;;;;;;;;;;;2210416;67;2004;-63
2022/09/04 14:55:16;;;;;;;;;;;;;;;;;;2210204;59;1278;-64
2022/09/04 14:57:54;;;;;;;;;;;;;;;;;;2210649;67;1117;-65
2022/09/04 15:00:28;;;;;;;;;;;;;;;;;;2210449;67;1259;-65
2022/09/04 15:03:06;;;;;;;;;;;;;;;;;;2209681;59;1328;-64
2022/09/04 15:05:50;;;;;;;;;;;;;;;;;;2210604;67;1152;-64
2022/09/04 15:08:28;;;;;;;;;;;;;;;;;;2210250;67;1256;-63
2022/09/04 15:11:04;;;;;;;;;;;;;;;;;;2210061;59;1975;-64
2022/09/04 15:13:48;;;;;;;;;;;;;;;;;;2210983;59;1313;-64
2022/09/04 15:16:30;;;;;;;;;;;;;;;;;;2210448;67;1247;-65
2022/09/04 15:19:08;;;;;;;;;;;;;;;;;;2210410;60;1208;-66
2022/09/04 15:21:51;;;;;;;;;;;;;;;;;;2210689;67;1187;-64
2022/09/04 15:24:27;;;;;;;;;;;;;;;;;;2210449;67;1228;-65
2022/09/04 15:27:06;;;;;;;;;;;;;;;;;;2207267;59;1687;-66
2022/09/04 15:29:42;;;;;;;;;;;;;;;;;;2210362;67;1089;-65
2022/09/04 15:32:22;;;;;;;;;;;;;;;;;;2210478;67;1975;-63
2022/09/04 15:35:07;;;;;;;;;;;;;;;;;;2210539;67;1103;-63
2022/09/04 15:37:45;;;;;;;;;;;;;;;;;;2210261;67;1327;-63
2022/09/04 15:40:26;;;;;;;;;;;;;;;;;;2210343;67;1240;-65
2022/09/04 15:43:08;;;;;;;;;;;;;;;;;;2210226;67;1261;-65
2022/09/04 15:45:44;;;;;;;;;;;;;;;;;;2210391;67;1116;-63
2022/09/04 15:48:24;;;;;;;;;;;;;;;;;;2210327;67;1201;-66
2022/09/04 15:51:02;;;;;;;;;;;;;;;;;;2210039;67;1911;-63
2022/09/04 15:53:39;;;;;;;;;;;;;;;;;;2210080;67;1955;-64
2022/09/04 15:56:29;;;;;;;;;;;;;;;;;;2209987;67;1076;-61
2022/09/04 15:59:06;;;;;;;;;;;;;;;;;;2210042;67;1219;-63
2022/09/04 16:01:44;;;;;;;;;;;;;;;;;;2210304;67;1205;-64
2022/09/04 16:04:24;;;;;;;;;;;;;;;;;;2210155;59;1361;-64
2022/09/04 16:07:01;;;;;;;;;;;;;;;;;;2210025;67;1120;-65
2022/09/04 16:09:40;;;;;;;;;;;;;;;;;;2210378;60;1088;-65
2022/09/04 16:12:17;;;;;;;;;;;;;;;;;;2209656;59;1933;-65
2022/09/04 16:14:53;;;;;;;;;;;;;;;;;;2210136;67;1302;-65
2022/09/04 16:17:28;;;;;;;;;;;;;;;;;;2210496;67;1249;-65
2022/09/04 16:20:05;;;;;;;;;;;;;;;;;;2210572;67;1310;-64
2022/09/04 16:22:42;;;;;;;;;;;;;;;;;;2211650;67;1269;-66
2022/09/04 16:25:27;;;;;;;;;;;;;;;;;;2211048;67;1192;-64
2022/09/04 16:28:04;;;;;;;;;;;;;;;;;;2210624;59;1695;-64
2022/09/04 16:30:40;;;;;;;;;;;;;;;;;;2211235;67;1005;-64
2022/09/04 16:33:23;;;;;;;;;;;;;;;;;;2210680;67;1931;-65
2022/09/04 16:36:01;;;;;;;;;;;;;;;;;;2211055;67;1116;-66
2022/09/04 16:38:46;;;;;;;;;;;;;;;;;;2210779;67;1090;-64
2022/09/04 16:41:25;;;;;;;;;;;;;;;;;;2210859;67;1277;-65
2022/09/04 16:44:12;;;;;;;;;;;;;;;;;;2210732;67;1216;-61
2022/09/04 16:47:01;;;;;;;;;;;;;;;;;;2210819;59;1203;-64
2022/09/04 16:49:40;;;;;;;;;;;;;;;;;;2210721;67;1116;-65
2022/09/04 16:52:38;;;;;;;;;;;;;;;;;;2210891;67;1984;-63
2022/09/04 16:55:12;;;;;;;;;;;;;;;;;;2210144;67;1156;-64
2022/09/04 16:57:53;;;;;;;;;;;;;;;;;;2210821;67;1123;-65
2022/09/04 17:00:28;;;;;;;;;;;;;;;;;;2210677;67;1093;-64
2022/09/04 17:03:05;;;;;;;;;;;;;;;;;;2210769;59;1282;-64
2022/09/04 17:05:44;;;;;;;;;;;;;;;;;;2211209;67;1049;-63
2022/09/04 17:08:19;;;;;;;;;;;;;;;;;;2210448;67;1218;-64
2022/09/04 17:10:56;;;;;;;;;;;;;;;;;;2211266;59;1152;-65
2022/09/04 17:13:37;;;;;;;;;;;;;;;;;;2210609;67;2082;-64
2022/09/04 17:16:13;;;;;;;;;;;;;;;;;;2210658;59;1132;-64
2022/09/04 17:18:48;;;;;;;;;;;;;;;;;;2210829;67;1276;-65
2022/09/04 17:24:17;;;;;;;;;;;;;;;;;;2211000;67;1196;-65
2022/09/04 17:26:55;;;;;;;;;;;;;;;;;;2210754;59;1799;-64
2022/09/04 17:29:34;;;;;;;;;;;;;;;;;;2210625;67;1216;-65
2022/09/04 17:32:09;;;;;;;;;;;;;;;;;;2210180;67;1936;-64
2022/09/04 17:34:50;;;;;;;;;;;;;;;;;;2210662;67;1240;-65
2022/09/04 17:37:27;;;;;;;;;;;;;;;;;;2210182;67;1203;-64
2022/09/04 17:40:04;;;;;;;;;;;;;;;;;;2210307;67;1222;-64
2022/09/04 17:42:43;;;;;;;;;;;;;;;;;;2210613;67;1189;-64
2022/09/04 17:45:26;;;;;;;;;;;;;;;;;;2210782;67;1059;-65
2022/09/04 17:48:16;;;;;;;;;;;;;;;;;;2210519;59;1292;-63
2022/09/04 17:50:51;;;;;;;;;;;;;;;;;;2210791;67;1200;-60
2022/09/04 17:53:25;;;;;;;;;;;;;;;;;;2210652;67;1941;-62
2022/09/04 17:56:02;;;;;;;;;;;;;;;;;;2210348;67;1245;-64
2022/09/04 17:58:38;;;;;;;;;;;;;;;;;;2210475;67;1029;-63
2022/09/04 18:01:19;;;;;;;;;;;;;;;;;;2210365;67;1214;-63
2022/09/04 18:03:59;;;;;;;;;;;;;;;;;;2210621;59;1258;-64
2022/09/04 18:06:38;;;;;;;;;;;;;;;;;;2210674;67;1053;-64
2022/09/04 18:09:14;;;;;;;;;;;;;;;;;;2210404;67;1274;-63
2022/09/04 18:11:49;;;;;;;;;;;;;;;;;;2210908;59;1291;-65
2022/09/04 18:14:29;;;;;;;;;;;;;;;;;;2210745;67;1924;-62
2022/09/04 18:17:09;;;;;;;;;;;;;;;;;;2210570;67;1235;-63
2022/09/04 18:19:45;;;;;;;;;;;;;;;;;;2210841;67;1057;-64
2022/09/04 18:22:29;;;;;;;;;;;;;;;;;;2210679;67;1267;-64
2022/09/04 18:25:06;;;;;;;;;;;;;;;;;;2210159;67;1211;-62
2022/09/04 18:27:43;;;;;;;;;;;;;;;;;;2210956;59;1583;-65
2022/09/04 18:30:18;;;;;;;;;;;;;;;;;;2210704;67;1109;-64
2022/09/04 18:32:57;;;;;;;;;;;;;;;;;;2210614;67;1975;-64
2022/09/04 18:35:35;;;;;;;;;;;;;;;;;;2210480;67;1044;-64
2022/09/04 18:38:12;;;;;;;;;;;;;;;;;;2210275;67;1762;-63
2022/09/04 18:40:47;;;;;;;;;;;;;;;;;;2210613;67;1190;-62
2022/09/04 18:43:25;;;;;;;;;;;;;;;;;;2210472;67;1176;-60
2022/09/04 18:46:00;;;;;;;;;;;;;;;;;;2210724;60;1167;-61
2022/09/04 18:48:37;;;;;;;;;;;;;;;;;;2210476;67;1094;-61
2022/09/04 18:51:17;;;;;;;;;;;;;;;;;;2210441;67;1068;-61
2022/09/04 18:53:52;;;;;;;;;;;;;;;;;;2210970;67;1933;-63
2022/09/04 18:56:29;;;;;;;;;;;;;;;;;;2211170;67;1243;-60
2022/09/04 18:59:06;;;;;;;;;;;;;;;;;;2210753;67;1338;-65
2022/09/04 19:01:42;;;;;;;;;;;;;;;;;;2210373;59;6172;-65
2022/09/04 19:04:40;;;;;;;;;;;;;;;;;;2210896;59;1319;-63
2022/09/04 19:07:21;;;;;;;;;;;;;;;;;;2211378;59;1235;-64
2022/09/04 19:10:00;;;;;;;;;;;;;;;;;;2210745;67;1114;-65
2022/09/04 19:12:40;;;;;;;;;;;;;;;;;;2211230;59;1933;-64
2022/09/04 19:15:23;;;;;;;;;;;;;;;;;;2210796;67;1145;-63
2022/09/04 19:17:59;;;;;;;;;;;;;;;;;;2211111;67;1105;-62
2022/09/04 19:20:45;;;;;;;;;;;;;;;;;;2210980;67;1060;-65
2022/09/04 19:23:24;;;;;;;;;;;;;;;;;;2210709;67;1245;-65
2022/09/04 19:26:01;;;;;;;;;;;;;;;;;;2210549;67;1290;-65
2022/09/04 19:28:41;;;;;;;;;;;;;;;;;;2210415;59;1901;-65
2022/09/04 19:31:18;;;;;;;;;;;;;;;;;;2209786;67;1064;-65
2022/09/04 19:33:55;;;;;;;;;;;;;;;;;;2210659;67;1938;-64
2022/09/04 19:36:34;;;;;;;;;;;;;;;;;;2210027;67;1217;-64
2022/09/04 19:39:16;;;;;;;;;;;;;;;;;;2209862;67;1140;-63
2022/09/04 19:41:51;;;;;;;;;;;;;;;;;;2210501;67;1145;-65
2022/09/04 19:44:26;;;;;;;;;;;;;;;;;;2209800;59;1298;-65
2022/09/04 19:47:05;;;;;;;;;;;;;;;;;;2210072;59;1175;-65
2022/09/04 19:49:44;;;;;;;;;;;;;;;;;;2210690;67;1030;-65
2022/09/04 19:52:21;;;;;;;;;;;;;;;;;;2210405;67;1095;-64
2022/09/04 19:54:59;;;;;;;;;;;;;;;;;;2210224;67;1946;-64
2022/09/04 19:57:34;;;;;;;;;;;;;;;;;;2210595;67;1181;-65
2022/09/04 20:00:09;;;;;;;;;;;;;;;;;;2209651;67;1165;-64
2022/09/04 20:02:47;;;;;;;;;;;;;;;;;;2210388;59;1298;-63
2022/09/04 20:05:22;;;;;;;;;;;;;;;;;;2210281;67;1100;-64
2022/09/04 20:08:04;;;;;;;;;;;;;;;;;;2210432;67;1105;-64
2022/09/04 20:10:40;;;;;;;;;;;;;;;;;;2210184;59;1278;-63
2022/09/04 20:13:20;;;;;;;;;;;;;;;;;;2210311;59;1929;-65
2022/09/04 20:15:56;;;;;;;;;;;;;;;;;;2210334;67;1140;-63
2022/09/04 20:18:31;;;;;;;;;;;;;;;;;;2210522;67;1072;-64
2022/09/04 20:21:10;;;;;;;;;;;;;;;;;;2210334;67;1034;-65
2022/09/04 20:23:49;;;;;;;;;;;;;;;;;;2210577;59;1160;-64
2022/09/04 20:26:23;;;;;;;;;;;;;;;;;;2210468;59;2113;-65
2022/09/04 20:29:07;;;;;;;;;;;;;;;;;;2210449;59;1438;-65
2022/09/04 20:31:48;;;;;;;;;;;;;;;;;;2209497;67;1130;-64
2022/09/04 20:34:38;;;;;;;;;;;;;;;;;;2210244;59;2054;-62
2022/09/04 20:37:25;;;;;;;;;;;;;;;;;;2209875;67;1099;-64
2022/09/04 20:40:10;;;;;;;;;;;;;;;;;;2210054;67;1243;-64
2022/09/04 20:42:45;;;;;;;;;;;;;;;;;;2210509;67;1248;-65
2022/09/04 20:45:27;;;;;;;;;;;;;;;;;;2209988;67;1192;-65
2022/09/04 20:48:07;;;;;;;;;;;;;;;;;;2210189;59;1351;-64
2022/09/04 20:50:47;;;;;;;;;;;;;;;;;;2210274;67;1202;-66
2022/09/04 20:53:24;;;;;;;;;;;;;;;;;;2210090;67;1933;-64
2022/09/04 20:56:10;;;;;;;;;;;;;;;;;;2209866;67;1259;-65
2022/09/04 20:58:52;;;;;;;;;;;;;;;;;;2210586;67;1200;-64
2022/09/04 21:01:34;;;;;;;;;;;;;;;;;;2209782;67;1360;-65
2022/09/04 21:04:13;;;;;;;;;;;;;;;;;;2209951;59;1259;-65
2022/09/04 21:06:50;;;;;;;;;;;;;;;;;;2209715;67;1109;-64
2022/09/04 21:09:33;;;;;;;;;;;;;;;;;;2210770;59;1198;-64
2022/09/04 21:12:18;;;;;;;;;;;;;;;;;;2210415;59;1287;-63
2022/09/04 21:17:39;;;;;;;;;;;;;;;;;;2207530;59;2292;-76
2022/09/04 21:20:22;;;;;;;;;;;;;;;;;;2208342;59;1270;-77
2022/09/04 21:23:13;;;;;;;;;;;;;;;;;;2208075;59;1108;-77
2022/09/04 21:25:52;;;;;;;;;;;;;;;;;;2208382;59;1242;-77
2022/09/04 21:28:43;;;;;;;;;;;;;;;;;;2208431;59;1490;-76